Time;durP1;ratioP1;P1;durP2;ratioP2;P2;SDS_P1;SDS_P2;PMS_P1;PMS_P2;Temp;Humidity;BMP_temperature;BMP_pressure;BME280_temperature;BME280_humidity;BME280_pressure;Samples;Min_cycle;Max_cycle;Signal;HPM_P1;HPM_P2
2022/10/12 08:03:01;;;;;;;8.87;4.37;;;15.40;71.80;;;-142.21;100.00;112049.66;4375844;28;22490;-72
2022/10/12 08:05:28;;;;;;;9.40;4.57;;;15.50;71.70;;;-142.21;100.00;112049.66;5089205;28;20580;-70
2022/10/12 08:07:59;;;;;;;10.40;5.30;;;15.50;71.80;;;-142.21;100.00;112049.66;5074773;28;20514;-69
2022/10/12 08:10:26;;;;;;;10.00;4.93;;;15.50;71.80;;;-142.21;100.00;112049.66;5092432;28;20492;-69
2022/10/12 08:12:54;;;;;;;7.13;4.60;;;15.60;72.00;;;-142.21;100.00;112049.66;5092113;28;20524;-69
2022/10/12 08:15:26;;;;;;;10.77;4.40;;;15.60;71.50;;;-142.21;99.93;112049.66;5091361;28;20508;-70
2022/10/12 08:17:55;;;;;;;8.90;4.90;;;15.70;71.60;;;-142.21;100.00;112049.66;5092246;28;20430;-69
2022/10/12 10:48:00;;;;;;;14.87;7.10;;;21.00;63.20;;;-142.21;82.63;112049.66;5070251;28;20228;-68
2022/10/12 10:54:24;;;;;;;8.87;7.07;;;21.40;62.20;;;-142.21;82.37;112049.66;5053518;28;20201;-68
2022/10/12 10:57:01;;;;;;;10.83;7.60;;;21.70;61.90;;;-142.21;80.39;112049.66;5067742;28;20700;-69
2022/10/12 10:59:50;;;;;;;9.70;7.03;;;21.90;61.20;;;-142.21;79.27;112049.66;5055341;28;20639;-70
2022/10/12 11:02:40;;;;;;;7.97;7.13;;;22.20;60.30;;;-142.21;78.12;112049.66;5072944;28;20263;-68
2022/10/12 11:05:18;;;;;;;7.63;6.30;;;22.40;59.60;;;-142.21;77.35;112049.66;5073360;28;20235;-70
2022/10/12 11:07:54;;;;;;;8.23;7.10;;;22.70;59.70;;;-142.21;76.70;112049.66;5073488;28;20196;-69
2022/10/12 11:10:29;;;;;;;7.47;6.00;;;22.90;59.40;;;-142.21;77.23;112049.66;5072435;28;20193;-68
2022/10/12 11:13:06;;;;;;;8.63;6.03;;;23.10;59.40;;;-142.21;74.94;112049.66;5073028;28;20288;-70
2022/10/12 11:15:44;;;;;;;8.90;6.37;;;23.30;58.80;;;-142.21;75.52;112049.66;5072524;28;20215;-71
2022/10/12 11:18:19;;;;;;;8.33;6.40;;;23.50;58.80;;;-142.21;71.34;112049.66;5071661;28;20190;-69
2022/10/12 11:20:55;;;;;;;9.57;7.20;;;23.60;58.00;;;-142.21;70.49;112049.66;5072969;28;20220;-70
2022/10/12 11:23:41;;;;;;;9.17;6.87;;;23.50;56.80;;;-142.21;73.14;112049.66;5072525;28;20185;-69
2022/10/12 11:26:24;;;;;;;8.87;6.40;;;23.50;57.20;;;-142.21;74.01;112049.66;5073130;28;20196;-70
2022/10/12 11:28:56;;;;;;;7.17;6.27;;;23.60;57.40;;;-142.21;73.39;112049.66;5066231;28;20291;-70
2022/10/12 11:31:31;;;;;;;8.13;5.03;;;23.80;57.60;;;-142.21;73.10;112049.66;5072339;28;20188;-70
2022/10/12 11:34:04;;;;;;;7.90;6.57;;;24.00;57.50;;;-142.21;69.57;112049.66;5072962;28;20291;-69
2022/10/12 11:36:37;;;;;;;7.17;5.60;;;24.30;56.80;;;-142.21;69.03;112049.66;5072332;28;20505;-69
2022/10/12 11:39:15;;;;;;;8.83;6.07;;;24.50;56.60;;;-142.21;67.22;112049.66;5072666;28;20189;-70
2022/10/12 11:41:48;;;;;;;6.93;5.93;;;24.80;55.90;;;-142.21;65.76;112049.66;5072551;28;20193;-69
2022/10/12 11:44:24;;;;;;;8.63;5.97;;;24.90;55.50;;;-142.21;63.79;112049.66;5072342;28;20250;-68
2022/10/12 11:47:01;;;;;;;7.77;5.90;;;25.00;54.90;;;-142.21;63.41;112049.66;5072984;28;20188;-69
2022/10/12 11:49:34;;;;;;;8.57;5.63;;;25.10;54.40;;;-142.21;65.34;112049.66;5085064;28;20236;-71
2022/10/12 11:52:11;;;;;;;11.27;5.57;;;25.20;54.70;;;-142.21;64.19;112049.66;5092812;28;20299;-69
2022/10/12 11:54:49;;;;;;;7.53;5.17;;;25.30;54.40;;;-142.21;63.05;112049.66;5092947;28;20273;-71
2022/10/12 11:57:24;;;;;;;9.10;5.37;;;25.50;54.10;;;-142.21;61.74;112049.66;5092030;28;20262;-70
2022/10/12 12:00:01;;;;;;;9.73;5.87;;;25.60;53.50;;;-142.21;59.88;112049.66;5092686;28;20204;-70
2022/10/12 12:02:38;;;;;;;6.93;5.17;;;25.80;53.40;;;-142.21;58.04;112049.66;5092627;28;20192;-70
2022/10/12 12:05:14;;;;;;;5.47;4.97;;;26.00;52.90;;;-142.21;58.54;112049.66;5091913;28;20236;-69
2022/10/12 12:07:47;;;;;;;10.07;6.13;;;26.20;52.70;;;-142.21;56.38;112049.66;5112467;28;20223;-70
2022/10/12 12:10:52;;;;;;;9.37;5.40;;;26.40;52.30;;;-142.21;53.51;112049.66;5112145;28;20192;-70
2022/10/12 12:13:25;;;;;;;6.03;4.67;;;26.50;51.30;;;-142.21;53.48;112049.66;5073399;28;20211;-69
2022/10/12 12:16:31;;;;;;;7.63;5.50;;;26.70;51.90;;;-142.21;53.34;112049.66;5112582;28;20230;-69
2022/10/12 12:19:35;;;;;;;9.97;5.30;;;26.70;50.90;;;-142.21;52.32;112049.66;5112767;28;20192;-70
2022/10/12 12:22:20;;;;;;;5.17;4.40;;;26.60;50.90;;;-142.21;51.98;112049.66;5107451;28;20307;-69
2022/10/12 12:25:20;;;;;;;5.80;5.00;;;26.80;51.00;;;-142.21;48.62;112049.66;5112639;28;20188;-69
2022/10/12 12:27:52;;;;;;;6.93;4.70;;;27.00;50.10;;;-142.21;46.36;112049.66;5112024;28;20204;-69
2022/10/12 12:30:39;;;;;;;7.10;4.63;;;27.20;50.20;;;-142.21;44.51;112049.66;5111473;28;20707;-70
2022/10/12 12:33:29;;;;;;;8.23;5.03;;;27.50;49.50;;;-142.21;41.59;112049.66;5112682;28;20580;-69
2022/10/12 12:36:01;;;;;;;8.37;5.70;;;27.70;48.20;;;-142.21;40.17;112049.66;5112391;28;20208;-69
2022/10/12 12:38:32;;;;;;;8.20;5.30;;;27.80;48.20;;;-142.21;39.26;112049.66;5111494;28;20712;-70
2022/10/12 12:41:14;;;;;;;7.07;5.33;;;27.90;48.70;;;-142.21;36.20;112049.66;5112581;28;20244;-69
2022/10/12 12:44:04;;;;;;;7.10;4.93;;;28.10;47.90;;;-142.21;35.52;112049.66;5112007;28;20582;-70
2022/10/12 12:47:20;;;;;;;9.67;5.43;;;28.10;48.00;;;-142.21;34.86;112049.66;5111449;28;20187;-70
2022/10/12 12:49:50;;;;;;;6.13;4.80;;;28.10;47.50;;;-142.21;34.37;112049.66;5111630;28;20323;-71
2022/10/12 12:52:27;;;;;;;6.53;4.70;;;28.20;48.00;;;-142.21;32.80;112049.66;5111852;28;20200;-69
2022/10/12 12:55:58;;;;;;;7.70;4.60;;;28.40;47.60;;;-142.21;30.95;112049.66;5112307;28;20552;-70
2022/10/12 12:58:48;;;;;;;6.77;4.70;;;28.90;46.60;;;-142.21;30.14;112049.66;5105341;28;20216;-69
2022/10/12 13:01:44;;;;;;;9.23;5.47;;;29.00;46.00;;;-142.21;32.22;112049.66;5111932;28;20638;-70
2022/10/12 13:04:43;;;;;;;8.70;4.87;;;28.80;45.80;;;-142.21;30.59;112049.66;5111637;28;20215;-70
2022/10/12 13:07:49;;;;;;;6.70;4.60;;;28.90;45.30;;;-142.21;30.06;112049.66;5111964;28;20240;-69
2022/10/12 13:10:30;;;;;;;7.57;5.03;;;29.20;45.70;;;-142.21;28.68;112049.66;5094315;28;20750;-70
2022/10/12 13:13:37;;;;;;;5.40;4.57;;;29.50;45.40;;;-142.21;27.98;112049.66;5111641;28;20631;-69
2022/10/12 13:16:25;;;;;;;6.47;4.07;;;30.00;44.40;;;-142.21;27.43;112049.66;5111023;28;20223;-70
2022/10/12 13:18:59;;;;;;;8.43;5.23;;;30.50;43.50;;;-142.21;26.81;112049.66;5111334;28;20270;-70
2022/10/12 13:21:31;;;;;;;9.07;5.10;;;30.90;43.20;;;-142.21;27.87;112049.66;5111528;28;20200;-69
2022/10/12 13:24:12;;;;;;;4.93;4.13;;;31.00;42.50;;;-142.21;28.23;112049.66;5112181;28;20589;-71
2022/10/12 13:26:43;;;;;;;7.50;4.17;;;31.70;42.60;;;-142.21;27.42;112049.66;5111055;28;20270;-70
2022/10/12 13:29:23;;;;;;;7.07;5.20;;;33.10;41.20;;;-142.21;27.51;112049.66;5111497;28;20230;-70
2022/10/12 13:31:57;;;;;;;6.83;4.93;;;34.90;38.10;;;-142.21;26.58;112049.66;5111796;28;20192;-71
2022/10/12 13:34:33;;;;;;;6.30;4.73;;;36.70;35.90;;;-142.21;26.48;112049.66;5110688;28;20289;-71
2022/10/12 13:37:04;;;;;;;8.40;4.90;;;38.10;34.50;;;-142.21;27.23;112049.66;5111461;28;20250;-70
2022/10/12 13:39:42;;;;;;;7.37;4.37;;;39.40;32.50;;;-142.21;27.09;112049.66;5111114;28;20273;-71
2022/10/12 13:42:16;;;;;;;7.77;4.40;;;40.70;30.30;;;-142.21;26.94;112049.66;5114951;28;20190;-70
2022/10/12 13:44:46;;;;;;;7.00;4.80;;;41.60;29.60;;;-142.21;26.80;112049.66;5115467;28;20191;-70
2022/10/12 13:47:26;;;;;;;6.10;4.60;;;42.50;29.20;;;-142.21;27.04;112049.66;5115362;28;20199;-70
2022/10/12 13:49:55;;;;;;;9.93;5.10;;;43.30;27.30;;;-142.21;26.66;112049.66;5115043;28;20231;-70
2022/10/12 13:52:26;;;;;;;7.97;4.90;;;44.10;27.90;;;-142.21;26.85;112049.66;5115169;28;20207;-70
2022/10/12 13:54:57;;;;;;;5.47;4.57;;;44.70;27.00;;;-142.21;26.88;112049.66;5115690;28;20195;-71
2022/10/12 13:57:30;;;;;;;6.23;4.00;;;45.40;26.50;;;-142.21;26.61;112049.66;5114736;28;20288;-71
2022/10/12 14:00:02;;;;;;;7.33;5.03;;;45.80;25.60;;;-142.21;26.59;112049.66;5115402;28;20188;-70
2022/10/12 14:02:31;;;;;;;5.63;4.60;;;46.10;25.50;;;-142.21;26.78;112049.66;5114821;28;20278;-70
2022/10/12 14:05:07;;;;;;;6.32;4.53;;;46.50;25.00;;;-142.21;27.03;112049.66;5115573;28;20290;-70
2022/10/12 14:07:38;;;;;;;8.03;4.93;;;46.70;24.40;;;-142.21;27.65;112049.66;5114707;28;20294;-70
2022/10/12 14:10:15;;;;;;;7.57;4.57;;;46.60;24.50;;;-142.21;27.59;112049.66;5115438;28;20548;-71
2022/10/12 14:12:46;;;;;;;6.00;4.80;;;46.60;24.30;;;-142.21;28.67;112049.66;5114566;28;20502;-70
2022/10/12 14:15:15;;;;;;;5.97;4.70;;;46.70;24.20;;;-142.21;28.29;112049.66;5114848;28;20697;-71
2022/10/12 14:17:46;;;;;;;7.03;4.60;;;46.70;24.60;;;-142.21;28.52;112049.66;5114300;28;20237;-71
2022/10/12 14:20:28;;;;;;;5.40;4.50;;;46.20;24.20;;;-142.21;30.79;112049.66;5097127;28;20223;-71
2022/10/12 14:22:58;;;;;;;8.97;4.43;;;43.70;24.80;;;-142.21;32.99;112049.66;5115033;28;20187;-71
2022/10/12 14:25:28;;;;;;;5.73;4.73;;;41.20;27.00;;;-142.21;32.36;112049.66;5114470;28;20723;-71
2022/10/12 14:27:59;;;;;;;6.03;4.40;;;41.10;27.50;;;-142.21;31.33;112049.66;5114442;28;20294;-71
2022/10/12 14:30:31;;;;;;;9.47;4.53;;;41.50;27.40;;;-142.21;31.79;112049.66;5114257;28;20684;-71
2022/10/12 14:33:20;;;;;;;5.63;4.57;;;41.70;27.30;;;-142.21;31.73;112049.66;5114402;28;20187;-70
2022/10/12 14:35:51;;;;;;;7.73;4.50;;;42.10;26.80;;;-142.21;32.88;112049.66;5114574;28;20196;-70
2022/10/12 14:38:40;;;;;;;8.83;4.77;;;41.00;27.50;;;-142.21;34.29;112049.66;5114543;28;20218;-71
2022/10/12 14:41:33;;;;;;;5.87;4.17;;;40.00;27.90;;;-142.21;35.02;112049.66;5114269;28;20236;-70
2022/10/12 14:44:12;;;;;;;8.13;4.67;;;39.50;28.10;;;-142.21;36.74;112049.66;5114485;28;20272;-70
2022/10/12 14:46:47;;;;;;;10.10;5.03;;;38.90;29.20;;;-142.21;37.49;112049.66;5113763;28;20218;-70
2022/10/12 14:49:22;;;;;;;6.23;4.60;;;38.80;29.60;;;-142.21;38.71;112049.66;5114037;28;20263;-70
2022/10/12 14:51:52;;;;;;;8.27;5.07;;;38.00;29.80;;;-142.21;39.58;112049.66;5114467;28;20601;-71
2022/10/12 14:54:20;;;;;;;8.57;4.80;;;36.50;31.20;;;-142.21;41.05;112049.66;5114267;28;20293;-70
2022/10/12 14:56:47;;;;;;;8.17;5.23;;;34.90;32.90;;;-142.21;43.35;112049.66;5114124;28;20211;-70
2022/10/12 14:59:15;;;;;;;7.37;5.20;;;33.50;34.90;;;-142.21;44.06;112049.66;5114279;28;20203;-70
2022/10/12 15:01:43;;;;;;;9.63;4.93;;;32.40;36.50;;;-142.21;44.97;112049.66;5113353;28;20241;-71
2022/10/12 15:04:15;;;;;;;9.27;4.83;;;31.60;37.60;;;-142.21;45.65;112049.66;5114226;28;20613;-71
2022/10/12 15:06:46;;;;;;;6.17;4.80;;;31.20;38.70;;;-142.21;45.83;112049.66;5113257;28;20727;-71
2022/10/12 15:09:13;;;;;;;6.30;4.63;;;30.70;39.10;;;-142.21;48.11;112049.66;5114284;28;20658;-70
2022/10/12 15:11:41;;;;;;;9.30;5.17;;;30.20;40.30;;;-142.21;48.07;112049.66;5113328;28;20294;-70
2022/10/12 15:14:09;;;;;;;9.83;6.23;;;29.70;41.10;;;-142.21;49.27;112049.66;5113521;28;20242;-70
2022/10/12 15:16:37;;;;;;;11.60;6.80;;;29.30;41.90;;;-142.21;49.73;112049.66;5113422;28;20286;-70
2022/10/12 15:19:05;;;;;;;9.97;7.07;;;28.90;42.50;;;-142.21;49.62;112049.66;5114081;28;20231;-69
2022/10/12 15:21:32;;;;;;;10.87;5.40;;;28.90;43.00;;;-142.21;50.33;112049.66;5113379;28;20215;-70
2022/10/12 15:24:01;;;;;;;7.07;5.53;;;28.80;43.10;;;-142.21;51.33;112049.66;5113802;28;20739;-70
2022/10/12 15:26:28;;;;;;;8.83;4.80;;;29.20;42.70;;;-142.21;52.18;112049.66;5113044;28;20227;-70
2022/10/12 15:28:55;;;;;;;7.67;4.73;;;28.80;43.10;;;-142.21;52.33;112049.66;5113430;28;20264;-69
2022/10/12 15:31:22;;;;;;;6.07;4.80;;;28.40;43.70;;;-142.21;52.62;112049.66;5113507;28;20297;-70
2022/10/12 15:33:52;;;;;;;8.70;4.93;;;27.90;44.50;;;-142.21;53.64;112049.66;5113470;28;20681;-70
2022/10/12 15:36:19;;;;;;;8.97;5.03;;;27.60;45.40;;;-142.21;54.58;112049.66;5114049;28;20205;-69
2022/10/12 15:38:47;;;;;;;8.63;5.00;;;27.30;46.00;;;-142.21;55.74;112049.66;5113200;28;20611;-69
2022/10/12 15:41:18;;;;;;;5.90;4.77;;;27.00;46.80;;;-142.21;56.41;112049.66;5113319;28;20236;-70
2022/10/12 15:43:45;;;;;;;8.33;5.23;;;26.70;47.60;;;-142.21;56.89;112049.66;5113034;28;20272;-70
2022/10/12 15:46:13;;;;;;;7.90;5.20;;;26.40;48.60;;;-142.21;57.20;112049.66;5113362;28;20253;-70
2022/10/12 15:48:42;;;;;;;6.60;5.27;;;26.20;48.40;;;-142.21;57.26;112049.66;5112358;28;20267;-69
2022/10/12 15:51:18;;;;;;;9.67;5.20;;;26.00;48.70;;;-142.21;58.25;112049.66;5113462;28;20219;-69
2022/10/12 15:53:46;;;;;;;6.97;5.20;;;25.80;49.40;;;-142.21;59.00;112049.66;5112762;28;20230;-69
2022/10/12 15:56:16;;;;;;;8.43;4.60;;;25.60;49.70;;;-142.21;60.22;112049.66;5113021;28;20210;-70
2022/10/12 15:58:47;;;;;;;6.73;4.73;;;25.30;50.30;;;-142.21;61.25;112049.66;5112358;28;20192;-70
2022/10/12 16:01:16;;;;;;;8.83;4.77;;;25.20;50.70;;;-142.21;62.29;112049.66;5113377;28;20203;-70
2022/10/12 16:03:45;;;;;;;6.37;4.90;;;25.10;51.10;;;-142.21;63.04;112049.66;5111917;28;20196;-70
2022/10/12 16:06:12;;;;;;;9.63;5.53;;;24.90;51.60;;;-142.21;64.04;112049.66;5113065;28;20231;-69
2022/10/12 16:08:39;;;;;;;9.20;5.20;;;24.70;51.90;;;-142.21;64.92;112049.66;5112519;28;20290;-70
2022/10/12 16:11:10;;;;;;;7.67;4.97;;;24.50;52.40;;;-142.21;65.27;112049.66;5113058;28;20204;-69
2022/10/12 16:13:40;;;;;;;8.37;4.93;;;24.40;52.60;;;-142.21;65.83;112049.66;5111749;28;20259;-71
2022/10/12 16:16:08;;;;;;;8.33;4.90;;;24.30;52.90;;;-142.21;66.76;112049.66;5112547;28;20207;-69
2022/10/12 16:18:35;;;;;;;8.80;5.80;;;24.10;53.30;;;-142.21;67.44;112049.66;5112218;28;20199;-69
2022/10/12 16:21:03;;;;;;;8.37;5.57;;;24.00;53.40;;;-142.21;67.96;112049.66;5112825;28;20566;-69
2022/10/12 16:23:34;;;;;;;11.50;5.87;;;23.90;53.60;;;-142.21;69.14;112049.66;5111829;28;20302;-69
2022/10/12 16:26:04;;;;;;;6.67;5.40;;;23.80;54.20;;;-142.21;70.59;112049.66;5112428;28;20187;-69
2022/10/12 16:28:31;;;;;;;10.63;5.70;;;23.70;54.70;;;-142.21;71.78;112049.66;5111291;28;20691;-69
2022/10/12 16:31:00;;;;;;;7.03;5.33;;;23.50;55.00;;;-142.21;72.73;112049.66;5112211;28;20204;-69
2022/10/12 16:33:27;;;;;;;8.80;5.27;;;23.40;55.40;;;-142.21;73.31;112049.66;5111510;28;20208;-70
2022/10/12 16:35:54;;;;;;;7.07;5.13;;;23.30;55.60;;;-142.21;73.75;112049.66;5112674;28;20236;-69
2022/10/12 16:38:21;;;;;;;9.63;7.67;;;23.20;55.90;;;-142.21;74.09;112049.66;5112338;28;20760;-70
2022/10/12 16:40:49;;;;;;;12.80;11.50;;;23.00;56.00;;;-142.21;74.56;112049.66;5111611;28;20684;-70
2022/10/12 16:43:16;;;;;;;10.80;8.77;;;22.90;56.30;;;-142.21;74.98;112049.66;5111952;28;20684;-70
2022/10/12 16:45:44;;;;;;;12.17;9.67;;;22.90;56.70;;;-142.21;75.87;112049.66;5111362;28;20204;-70
2022/10/12 16:48:12;;;;;;;8.70;5.70;;;22.70;56.90;;;-142.21;76.40;112049.66;5111735;28;20235;-70
2022/10/12 16:50:39;;;;;;;6.83;5.30;;;22.60;57.40;;;-142.21;77.28;112049.66;5111937;28;20655;-70
2022/10/12 16:53:08;;;;;;;8.47;5.30;;;22.50;57.60;;;-142.21;77.59;112049.66;5111893;28;20759;-70
2022/10/12 16:55:38;;;;;;;8.93;5.53;;;22.40;57.90;;;-142.21;79.03;112049.66;5111546;28;20598;-70
2022/10/12 16:58:06;;;;;;;9.57;5.00;;;22.30;58.40;;;-142.21;79.64;112049.66;5112158;28;20188;-70
2022/10/12 17:00:34;;;;;;;9.13;5.20;;;22.20;58.60;;;-142.21;80.46;112049.66;5111127;28;20231;-70
2022/10/12 17:03:01;;;;;;;6.23;5.50;;;22.10;58.90;;;-142.21;81.03;112049.66;5111985;28;20208;-69
2022/10/12 17:05:30;;;;;;;10.33;5.40;;;22.00;59.10;;;-142.21;80.99;112049.66;5111217;28;20287;-69
2022/10/12 17:07:59;;;;;;;11.50;5.37;;;21.90;59.90;;;-142.21;81.02;112049.66;5112107;28;20611;-69
2022/10/12 17:10:26;;;;;;;10.37;5.77;;;21.80;59.40;;;-142.21;81.50;112049.66;5111940;28;20207;-70
2022/10/12 17:12:53;;;;;;;7.07;5.40;;;21.70;59.60;;;-142.21;82.04;112049.66;5111869;28;20290;-69
2022/10/12 17:15:21;;;;;;;11.20;5.70;;;21.60;59.90;;;-142.21;82.80;112049.66;5110694;28;20722;-69
2022/10/12 17:17:48;;;;;;;6.70;5.00;;;21.50;60.10;;;-142.21;83.28;112049.66;5111228;28;20232;-70
2022/10/12 17:20:16;;;;;;;8.57;5.13;;;21.40;60.50;;;-142.21;83.65;112049.66;5111658;28;20667;-69
2022/10/12 17:22:44;;;;;;;6.07;4.70;;;21.30;60.80;;;-142.21;84.20;112049.66;5111136;28;20250;-70
2022/10/12 17:25:11;;;;;;;10.00;5.37;;;21.20;61.10;;;-142.21;84.76;112049.66;5112014;28;20208;-68
2022/10/12 17:27:39;;;;;;;8.57;5.00;;;21.20;61.50;;;-142.21;85.35;112049.66;5111052;28;20299;-69
2022/10/12 17:30:08;;;;;;;8.03;5.63;;;21.10;61.80;;;-142.21;85.81;112049.66;5111779;28;20228;-69
2022/10/12 17:32:36;;;;;;;8.93;5.90;;;21.10;62.00;;;-142.21;86.22;112049.66;5111413;28;20298;-69
2022/10/12 17:35:04;;;;;;;7.57;5.30;;;21.00;62.20;;;-142.21;86.86;112049.66;5111760;28;20222;-69
2022/10/12 17:37:31;;;;;;;9.90;5.90;;;20.90;62.50;;;-142.21;87.22;112049.66;5110823;28;20227;-70
2022/10/12 17:40:00;;;;;;;8.87;5.63;;;20.80;62.90;;;-142.21;87.42;112049.66;5111600;28;20231;-69
2022/10/12 17:42:27;;;;;;;7.70;6.20;;;20.70;62.90;;;-142.21;87.63;112049.66;5112098;28;20231;-69
2022/10/12 17:44:55;;;;;;;8.10;5.60;;;20.70;63.20;;;-142.21;87.53;112049.66;5111381;28;20307;-69
2022/10/12 17:47:22;;;;;;;9.40;6.60;;;20.60;63.10;;;-142.21;87.86;112049.66;5111777;28;20265;-69
2022/10/12 17:49:49;;;;;;;8.97;5.37;;;20.50;64.10;;;-142.21;88.05;112049.66;5110735;28;20309;-70
2022/10/12 17:52:16;;;;;;;7.90;5.57;;;20.40;64.40;;;-142.21;88.17;112049.66;5111291;28;20207;-70
2022/10/12 17:54:43;;;;;;;10.70;6.40;;;20.40;63.80;;;-142.21;88.35;112049.66;5110494;28;20207;-69
2022/10/12 17:57:12;;;;;;;9.00;6.50;;;20.30;63.80;;;-142.21;88.80;112049.66;5111308;28;20836;-69
2022/10/12 17:59:39;;;;;;;9.90;6.30;;;20.30;64.10;;;-142.21;89.17;112049.66;5110905;28;20207;-69
2022/10/12 18:02:07;;;;;;;7.17;5.90;;;20.20;64.10;;;-142.21;89.41;112049.66;5111361;28;20239;-69
2022/10/12 18:04:34;;;;;;;10.43;6.30;;;20.20;64.50;;;-142.21;89.84;112049.66;5092695;28;20287;-69
2022/10/12 18:07:02;;;;;;;9.13;5.30;;;20.10;64.70;;;-142.21;90.64;112049.66;5111424;28;20207;-69
2022/10/12 18:09:29;;;;;;;9.63;6.00;;;20.00;65.00;;;-142.21;91.17;112049.66;5110917;28;20267;-69
2022/10/12 18:11:56;;;;;;;11.87;5.80;;;20.00;65.30;;;-142.21;91.55;112049.66;5111122;28;20208;-69
2022/10/12 18:14:25;;;;;;;8.50;5.90;;;20.00;65.20;;;-142.21;91.98;112049.66;5111507;28;20200;-69
2022/10/12 18:16:53;;;;;;;9.13;5.70;;;19.90;66.50;;;-142.21;92.12;112049.66;5110681;28;20212;-70
2022/10/12 18:19:23;;;;;;;10.40;6.00;;;19.90;65.90;;;-142.21;91.57;112049.66;5111232;28;20208;-69
2022/10/12 18:21:50;;;;;;;8.43;5.53;;;19.80;65.90;;;-142.21;91.29;112049.66;5110756;28;20534;-69
2022/10/12 18:24:19;;;;;;;9.17;5.47;;;19.80;65.90;;;-142.21;91.65;112049.66;5111057;28;20200;-70
2022/10/12 18:26:47;;;;;;;8.13;5.20;;;19.80;66.00;;;-142.21;92.04;112049.66;5111247;28;20211;-70
2022/10/12 18:29:15;;;;;;;7.17;4.70;;;19.70;66.10;;;-142.21;91.80;112049.66;5114976;28;20281;-69
2022/10/12 18:31:44;;;;;;;8.93;5.30;;;19.70;66.10;;;-142.21;92.43;112049.66;5114428;28;20243;-69
2022/10/12 18:34:12;;;;;;;6.50;5.40;;;19.70;66.30;;;-142.21;92.45;112049.66;5114974;28;20674;-69
2022/10/12 18:36:41;;;;;;;7.73;5.73;;;19.60;66.70;;;-142.21;92.73;112049.66;5114051;28;20306;-69
2022/10/12 18:39:09;;;;;;;8.10;5.07;;;19.50;66.90;;;-142.21;92.29;112049.66;5114254;28;20227;-69
2022/10/12 18:41:37;;;;;;;9.57;5.23;;;19.50;67.00;;;-142.21;92.27;112049.66;5114216;28;20210;-70
2022/10/12 18:44:04;;;;;;;8.77;5.70;;;19.40;66.80;;;-142.21;92.00;112049.66;5096678;28;20204;-69
2022/10/12 18:46:35;;;;;;;7.93;5.70;;;19.30;66.70;;;-142.21;92.23;112049.66;5114400;28;20206;-69
2022/10/12 18:49:09;;;;;;;7.10;5.83;;;19.30;66.80;;;-142.21;92.15;112049.66;5114412;28;20228;-68
2022/10/12 18:51:40;;;;;;;8.90;5.70;;;19.30;67.10;;;-142.21;92.01;112049.66;5113472;28;20204;-70
2022/10/12 18:54:11;;;;;;;10.00;5.80;;;19.20;67.00;;;-142.21;91.87;112049.66;5114388;28;20188;-70
2022/10/12 18:56:40;;;;;;;9.67;5.97;;;19.20;67.10;;;-142.21;92.73;112049.66;5113496;28;20883;-69
2022/10/12 18:59:08;;;;;;;7.27;5.87;;;19.10;68.00;;;-142.21;92.39;112049.66;5114464;28;20257;-69
2022/10/12 19:01:36;;;;;;;8.00;5.80;;;19.10;67.30;;;-142.21;92.46;112049.66;5113484;28;20215;-69
2022/10/12 19:04:05;;;;;;;9.73;6.03;;;19.10;67.30;;;-142.21;92.62;112049.66;5114361;28;20223;-69
2022/10/12 19:06:36;;;;;;;11.27;5.90;;;19.00;67.50;;;-142.21;93.58;112049.66;5114331;28;20211;-69
2022/10/12 19:09:05;;;;;;;10.47;5.70;;;18.90;67.60;;;-142.21;93.49;112049.66;5113594;28;20195;-70
2022/10/12 19:11:35;;;;;;;9.00;5.63;;;18.90;67.60;;;-142.21;92.91;112049.66;5095783;28;20212;-69
2022/10/12 22:09:18;;;;;;;10.40;6.60;;;16.30;72.60;;;-142.21;100.00;112049.66;5094294;28;20510;-68
2022/10/12 22:11:46;;;;;;;12.73;6.90;;;16.30;72.80;;;-142.21;99.95;112049.66;5091821;28;20459;-68
2022/10/12 22:14:16;;;;;;;9.43;6.63;;;16.30;72.30;;;-142.21;100.00;112049.66;5094656;28;20446;-69
2022/10/12 22:16:47;;;;;;;9.67;6.70;;;16.30;72.50;;;-142.21;100.00;112049.66;5093630;28;20458;-69
2022/10/12 22:19:18;;;;;;;13.93;7.00;;;16.30;72.60;;;-142.21;100.00;112049.66;5094351;28;20467;-68
2022/10/12 22:21:47;;;;;;;11.97;7.33;;;16.40;72.70;;;-142.21;100.00;112049.66;5094295;28;20422;-70
2022/10/12 22:24:15;;;;;;;11.00;7.80;;;16.40;72.40;;;-142.21;100.00;112049.66;5094387;28;20938;-69
2022/10/12 22:26:43;;;;;;;9.97;7.70;;;16.40;72.40;;;-142.21;100.00;112049.66;5094503;28;20537;-70
2022/10/12 22:29:10;;;;;;;9.87;6.57;;;16.40;72.30;;;-142.21;99.02;112049.66;5093939;28;20624;-68
